createdAt,value
2018-02-23T00:01:51.197Z,78.22
2018-02-23T00:04:19.209Z,77.92
2018-02-23T00:06:47.110Z,77.18
2018-02-23T00:09:15.080Z,77.21
2018-02-23T00:11:43.014Z,77.02
2018-02-23T00:14:10.971Z,77.86
2018-02-23T00:16:38.928Z,76.95
2018-02-23T00:19:06.865Z,77.42
2018-02-23T00:21:34.819Z,77.82
2018-02-23T00:24:02.818Z,78.04
2018-02-23T00:26:30.767Z,77.33
2018-02-23T00:28:58.725Z,77.62
2018-02-23T00:31:26.719Z,78.37
2018-02-23T00:33:54.670Z,78.34
2018-02-23T00:36:22.608Z,78.01
2018-02-23T00:38:50.572Z,77.84
2018-02-23T00:41:18.525Z,78.30
2018-02-23T00:43:46.499Z,77.89
2018-02-23T00:46:14.463Z,77.66
2018-02-23T00:48:42.448Z,77.34
2018-02-23T00:51:10.371Z,77.92
2018-02-23T00:53:38.376Z,77.86
2018-02-23T00:56:06.289Z,77.79
2018-02-23T00:58:34.229Z,77.89
2018-02-23T01:01:02.216Z,78.06
2018-02-23T01:03:30.155Z,78.48
2018-02-23T01:05:58.120Z,78.83
2018-02-23T01:08:26.082Z,78.69
2018-02-23T01:10:54.067Z,78.57
2018-02-23T01:13:22.027Z,77.72
2018-02-23T01:15:50.067Z,77.31
2018-02-23T01:18:18.027Z,76.94
2018-02-23T01:20:46.067Z,77.75
2018-02-23T01:23:14.076Z,77.71
2018-02-23T01:25:42.046Z,78.40
2018-02-23T01:28:10.071Z,78.07
2018-02-23T01:30:38.063Z,77.82
2018-02-23T01:33:05.986Z,77.00
2018-02-23T01:35:33.957Z,77.15
2018-02-23T01:38:01.917Z,78.23
2018-02-23T01:40:29.957Z,76.82
2018-02-23T01:42:57.933Z,76.92
2018-02-23T01:45:25.901Z,76.05
2018-02-23T01:47:53.903Z,75.10
2018-02-23T01:50:21.825Z,74.75
2018-02-23T01:52:49.788Z,75.29
2018-02-23T01:55:17.726Z,74.92
2018-02-23T01:57:45.668Z,75.83
2018-02-23T02:00:13.650Z,74.59
2018-02-23T02:02:41.622Z,74.39
2018-02-23T02:05:09.559Z,74.55
2018-02-23T02:07:37.495Z,74.59
2018-02-23T02:10:05.438Z,74.40
2018-02-23T02:12:33.473Z,75.03
2018-02-23T02:15:01.425Z,74.99
2018-02-23T02:17:29.395Z,74.58
2018-02-23T02:19:57.350Z,74.37
2018-02-23T02:22:25.294Z,75.65
2018-02-23T02:24:53.255Z,74.33
2018-02-23T02:27:21.233Z,74.43
2018-02-23T02:29:49.301Z,74.56
2018-02-23T02:32:17.250Z,73.75
2018-02-23T02:34:45.220Z,73.84
2018-02-23T02:37:13.206Z,74.15
2018-02-23T02:39:41.151Z,73.18
2018-02-23T02:42:09.106Z,73.15
2018-02-23T02:44:37.066Z,74.15
2018-02-23T02:47:05.078Z,73.12
2018-02-23T02:49:33.188Z,73.03
2018-02-23T02:52:01.134Z,73.01
2018-02-23T02:54:29.199Z,73.92
2018-02-23T02:56:57.275Z,73.75
2018-02-23T02:59:25.211Z,72.67
2018-02-23T03:01:53.207Z,73.11
2018-02-23T03:04:21.229Z,73.52
2018-02-23T03:06:49.176Z,73.16
2018-02-23T03:09:17.185Z,73.13
2018-02-23T03:11:45.161Z,73.82
2018-02-23T03:14:13.121Z,74.53
2018-02-23T03:16:41.158Z,74.14
2018-02-23T03:19:09.168Z,74.79
2018-02-23T03:21:37.200Z,74.64
2018-02-23T03:24:05.140Z,74.80
2018-02-23T03:26:33.276Z,75.03
2018-02-23T03:29:01.234Z,75.23
2018-02-23T03:31:29.177Z,75.42
2018-02-23T03:33:57.143Z,75.47
2018-02-23T03:36:25.144Z,76.27
2018-02-23T03:38:53.099Z,75.97
2018-02-23T03:41:21.030Z,76.00
2018-02-23T03:43:48.993Z,76.35
2018-02-23T03:46:16.962Z,76.05
2018-02-23T03:48:45.009Z,75.90
2018-02-23T03:51:13.068Z,76.64
2018-02-23T03:53:41.013Z,77.19
2018-02-23T03:56:08.945Z,76.75
2018-02-23T03:58:37.014Z,76.49
2018-02-23T04:01:04.964Z,76.73
2018-02-23T04:03:32.906Z,76.15
2018-02-23T04:06:00.892Z,76.57
2018-02-23T04:08:28.859Z,76.63
2018-02-23T04:10:56.779Z,76.51
2018-02-23T04:13:24.722Z,76.79
2018-02-23T04:15:52.689Z,75.88
2018-02-23T04:18:20.662Z,75.59
2018-02-23T04:20:48.597Z,73.70
2018-02-23T04:23:16.533Z,75.11
2018-02-23T04:25:44.515Z,74.89
2018-02-23T04:28:12.470Z,73.93
2018-02-23T04:30:40.443Z,74.59
2018-02-23T04:33:08.385Z,73.59
2018-02-23T04:35:36.354Z,73.26
2018-02-23T04:38:04.322Z,72.48
2018-02-23T04:40:32.298Z,72.54
2018-02-23T04:43:00.250Z,72.74
2018-02-23T04:45:28.322Z,72.83
2018-02-23T04:47:56.297Z,73.35
2018-02-23T04:50:24.370Z,76.42
2018-02-23T04:52:52.301Z,76.86
2018-02-23T04:55:20.279Z,76.83
2018-02-23T04:57:48.347Z,74.86
2018-02-23T05:00:16.304Z,73.83
2018-02-23T05:02:44.298Z,71.30
2018-02-23T05:05:12.241Z,71.06
2018-02-23T05:07:40.193Z,72.30
2018-02-23T05:10:08.148Z,71.06
2018-02-23T05:12:36.161Z,71.26
2018-02-23T05:15:04.165Z,71.07
2018-02-23T05:17:32.176Z,71.53
2018-02-23T05:20:00.107Z,71.51
2018-02-23T05:22:28.108Z,71.89
2018-02-23T05:24:56.084Z,72.38
2018-02-23T05:27:24.098Z,72.87
2018-02-23T05:29:52.060Z,72.54
2018-02-23T05:32:20.089Z,72.81
2018-02-23T05:34:48.025Z,72.69
2018-02-23T05:37:16.030Z,73.31
2018-02-23T05:39:44.003Z,72.02
2018-02-23T05:42:12.047Z,72.45
2018-02-23T05:44:39.985Z,73.13
2018-02-23T05:47:07.953Z,72.34
2018-02-23T05:49:35.950Z,72.55
2018-02-23T05:52:03.977Z,72.28
2018-02-23T05:54:31.980Z,72.77
2018-02-23T05:57:00.470Z,72.27
2018-02-23T05:59:28.438Z,73.02
2018-02-23T06:01:56.398Z,72.59
2018-02-23T06:04:24.371Z,73.48
2018-02-23T06:06:52.402Z,73.50
2018-02-23T06:09:20.370Z,73.67
2018-02-23T06:11:48.442Z,73.83
2018-02-23T06:14:16.411Z,73.71
2018-02-23T06:16:44.393Z,73.73
2018-02-23T06:19:12.333Z,73.46
2018-02-23T06:21:40.366Z,73.27
2018-02-23T06:24:08.327Z,73.54
2018-02-23T06:26:36.296Z,73.72
2018-02-23T06:29:05.394Z,73.99
2018-02-23T06:31:33.520Z,73.63
2018-02-23T06:34:01.465Z,73.27
2018-02-23T06:36:29.442Z,73.17
2018-02-23T06:38:57.381Z,73.13
2018-02-23T06:41:25.354Z,76.10
2018-02-23T06:43:53.328Z,84.51
2018-02-23T06:46:21.267Z,75.92
2018-02-23T06:48:49.247Z,74.83
2018-02-23T06:51:17.179Z,74.49
2018-02-23T06:53:45.155Z,74.31
2018-02-23T06:56:13.191Z,78.66
2018-02-23T06:58:41.137Z,77.86
2018-02-23T07:01:09.156Z,74.97
2018-02-23T07:03:37.087Z,72.99
2018-02-23T07:06:05.051Z,72.61
2018-02-23T07:08:33.012Z,72.09
2018-02-23T07:11:00.975Z,72.28
2018-02-23T07:13:28.897Z,71.93
2018-02-23T07:15:56.970Z,71.80
2018-02-23T07:18:24.929Z,72.23
2018-02-23T07:20:52.858Z,72.02
2018-02-23T07:23:20.807Z,72.32
2018-02-23T07:25:48.903Z,71.84
2018-02-23T07:28:16.881Z,70.98
2018-02-23T07:30:44.818Z,70.65
2018-02-23T07:33:12.816Z,70.40
2018-02-23T07:35:40.757Z,69.08
2018-02-23T07:38:08.719Z,69.35
2018-02-23T07:40:36.725Z,69.64
2018-02-23T07:43:04.693Z,70.30
2018-02-23T07:45:32.666Z,70.13
2018-02-23T07:48:00.664Z,70.01
2018-02-23T07:50:28.664Z,70.16
2018-02-23T07:52:57.421Z,71.16
2018-02-23T07:55:25.454Z,70.45
2018-02-23T07:57:53.430Z,73.88
2018-02-23T08:00:21.400Z,71.84
2018-02-23T08:02:49.391Z,68.92
2018-02-23T08:05:18.282Z,68.19
2018-02-23T08:07:46.227Z,68.56
2018-02-23T08:10:14.200Z,68.20
2018-02-23T08:12:42.232Z,68.64
2018-02-23T08:15:10.177Z,68.76
2018-02-23T08:17:38.457Z,68.36
2018-02-23T08:20:07.194Z,68.56
2018-02-23T08:22:35.685Z,69.34
2018-02-23T08:25:03.714Z,69.82
2018-02-23T08:27:31.714Z,69.36
2018-02-23T08:29:59.685Z,68.30
2018-02-23T08:32:27.647Z,69.45
2018-02-23T08:34:55.597Z,68.23
2018-02-23T08:37:23.537Z,68.20
2018-02-23T08:39:51.697Z,67.61
2018-02-23T08:42:19.637Z,67.22
2018-02-23T08:44:47.611Z,68.46
2018-02-23T08:47:15.558Z,66.19
2018-02-23T08:49:43.723Z,66.31
2018-02-23T08:52:11.664Z,66.18
2018-02-23T08:54:39.617Z,65.69
2018-02-23T08:57:07.570Z,66.04
2018-02-23T08:59:35.554Z,65.75
2018-02-23T09:02:03.630Z,64.63
2018-02-23T09:04:31.599Z,65.20
2018-02-23T09:06:59.528Z,64.05
2018-02-23T09:09:27.531Z,62.56
2018-02-23T09:11:55.633Z,62.34
2018-02-23T09:14:23.597Z,61.21
2018-02-23T09:16:51.588Z,60.42
2018-02-23T09:19:20.321Z,59.41
2018-02-23T09:21:48.591Z,56.94
2018-02-23T09:24:16.587Z,53.17
2018-02-23T09:26:44.574Z,51.47
2018-02-23T09:29:12.551Z,49.98
2018-02-23T09:31:41.029Z,48.42
2018-02-23T09:37:09.472Z,46.47
2018-02-23T09:39:37.411Z,45.47
2018-02-23T09:42:05.524Z,47.19
2018-02-23T09:44:33.530Z,47.38
2018-02-23T09:47:01.450Z,47.86
2018-02-23T09:49:29.443Z,48.68
2018-02-23T09:51:57.539Z,46.67
2018-02-23T09:54:25.461Z,47.50
2018-02-23T09:56:53.449Z,47.54
2018-02-23T09:59:21.451Z,48.31
2018-02-23T10:01:49.368Z,48.38
2018-02-23T10:04:17.347Z,47.97
2018-02-23T10:06:45.326Z,46.72
2018-02-23T10:09:13.277Z,45.80
2018-02-23T10:11:41.443Z,45.75
2018-02-23T10:14:09.441Z,45.10
2018-02-23T10:16:37.446Z,44.87
2018-02-23T10:19:05.414Z,46.54
2018-02-23T10:21:33.351Z,44.59
2018-02-23T10:24:01.375Z,43.95
2018-02-23T10:26:29.542Z,43.59
2018-02-23T10:28:57.497Z,43.40
2018-02-23T10:31:25.487Z,43.30
2018-02-23T10:33:53.463Z,41.87
2018-02-23T10:36:21.413Z,40.99
2018-02-23T10:38:49.348Z,40.02
2018-02-23T10:41:17.293Z,40.71
2018-02-23T10:43:45.234Z,39.52
2018-02-23T10:46:13.455Z,39.92
2018-02-23T10:48:41.455Z,39.20
2018-02-23T10:51:09.398Z,38.24
2018-02-23T10:53:38.893Z,38.34
2018-02-23T10:56:06.995Z,39.30
2018-02-23T10:58:34.975Z,39.02
2018-02-23T11:01:03.010Z,39.14
2018-02-23T11:03:31.194Z,39.54
2018-02-23T11:05:59.155Z,38.15
2018-02-23T11:08:27.104Z,38.80
2018-02-23T11:10:55.248Z,38.57
2018-02-23T11:13:23.187Z,39.56
2018-02-23T11:15:51.196Z,37.83
2018-02-23T11:18:19.145Z,39.36
2018-02-23T11:20:47.104Z,39.37
2018-02-23T11:23:15.092Z,37.53
2018-02-23T11:25:43.055Z,38.88
2018-02-23T11:28:11.066Z,39.67
2018-02-23T11:30:39.078Z,40.08
2018-02-23T11:33:07.004Z,39.20
2018-02-23T11:35:35.146Z,38.08
2018-02-23T11:38:03.075Z,39.16
2018-02-23T11:40:31.116Z,37.83
2018-02-23T11:42:59.049Z,38.30
2018-02-23T11:45:27.123Z,39.07
2018-02-23T11:47:55.075Z,38.55
2018-02-23T11:50:23.055Z,38.66
2018-02-23T11:52:50.965Z,39.67
2018-02-23T11:55:18.906Z,38.95
2018-02-23T11:57:47.014Z,40.45
2018-02-23T12:00:15.042Z,40.80
2018-02-23T12:02:43.001Z,39.82
2018-02-23T12:05:10.930Z,39.14
2018-02-23T12:07:38.917Z,38.86
2018-02-23T12:10:06.961Z,36.10
2018-02-23T12:12:34.941Z,37.38
2018-02-23T12:15:02.851Z,37.72
2018-02-23T12:17:30.811Z,36.92
2018-02-23T12:19:58.786Z,37.04
2018-02-23T12:22:26.827Z,36.27
2018-02-23T12:24:54.839Z,35.74
2018-02-23T12:27:22.973Z,36.50
2018-02-23T12:29:51.018Z,35.80
2018-02-23T12:32:19.039Z,34.87
2018-02-23T12:34:47.039Z,33.76
2018-02-23T12:37:15.015Z,35.37
2018-02-23T12:39:43.107Z,36.07
2018-02-23T12:42:11.174Z,37.48
2018-02-23T12:44:39.138Z,37.69
2018-02-23T12:47:07.059Z,36.68
2018-02-23T12:49:35.094Z,36.30
2018-02-23T12:52:03.051Z,36.50
2018-02-23T12:54:30.977Z,35.74
2018-02-23T12:56:58.963Z,36.83
2018-02-23T12:59:26.911Z,36.76
2018-02-23T13:01:54.838Z,38.17
2018-02-23T13:04:22.802Z,38.71
2018-02-23T13:06:50.769Z,40.51
2018-02-23T13:09:18.742Z,41.23
2018-02-23T13:11:46.742Z,41.39
2018-02-23T13:16:49.111Z,42.21
2018-02-23T13:19:17.070Z,42.76
2018-02-23T13:21:45.140Z,42.68
2018-02-23T13:24:13.060Z,44.56
2018-02-23T13:26:41.040Z,43.52
2018-02-23T13:29:09.020Z,43.95
2018-02-23T13:31:37.006Z,44.97
2018-02-23T13:34:04.982Z,44.57
2018-02-23T13:36:32.911Z,46.15
2018-02-23T13:39:00.992Z,46.68
2018-02-23T13:41:34.686Z,46.48
2018-02-23T13:44:02.726Z,46.12
2018-02-23T13:46:30.718Z,47.60
2018-02-23T13:48:58.740Z,47.68
2018-02-23T13:51:26.807Z,46.96
2018-02-23T13:53:55.283Z,47.69
2018-02-23T13:56:23.221Z,48.94
2018-02-23T13:58:51.189Z,49.00
2018-02-23T14:01:19.135Z,48.02
2018-02-23T14:03:47.077Z,48.95
2018-02-23T14:06:15.076Z,49.85
2018-02-23T14:08:43.003Z,49.50
2018-02-23T14:11:11.014Z,49.39
2018-02-23T14:13:38.999Z,48.85
2018-02-23T14:16:06.941Z,49.34
2018-02-23T14:18:34.902Z,49.82
2018-02-23T14:21:02.842Z,49.81
2018-02-23T14:23:30.845Z,49.96
2018-02-23T14:25:58.834Z,49.77
2018-02-23T14:28:26.934Z,50.58
2018-02-23T14:30:54.926Z,50.62
2018-02-23T14:33:22.965Z,52.06
2018-02-23T14:35:50.932Z,52.08
2018-02-23T14:38:18.865Z,51.19
2018-02-23T14:40:46.805Z,51.46
2018-02-23T14:43:14.755Z,51.25
2018-02-23T14:45:42.739Z,51.16
2018-02-23T14:48:10.711Z,51.85
2018-02-23T14:50:50.401Z,52.02
2018-02-23T14:53:18.603Z,52.30
2018-02-23T14:55:46.557Z,51.34
2018-02-23T14:58:14.510Z,51.83
2018-02-23T15:00:42.632Z,51.75
2018-02-23T15:03:10.811Z,50.67
2018-02-23T15:05:38.781Z,51.06
2018-02-23T15:08:06.886Z,51.10
2018-02-23T15:10:34.839Z,51.62
2018-02-23T15:13:03.717Z,51.30
2018-02-23T15:15:31.643Z,50.97
2018-02-23T15:17:59.933Z,51.38
2018-02-23T15:20:27.849Z,51.86
2018-02-23T15:22:55.983Z,51.84
2018-02-23T15:25:23.905Z,50.93
2018-02-23T15:27:51.895Z,48.74
2018-02-23T15:30:34.163Z,48.71
2018-02-23T15:33:02.578Z,48.97
2018-02-23T15:35:30.649Z,49.89
2018-02-23T15:37:59.413Z,49.86
2018-02-23T15:40:27.361Z,49.69
2018-02-23T15:42:55.592Z,49.92
2018-02-23T15:45:24.456Z,49.63
2018-02-23T15:47:58.753Z,49.55
2018-02-23T15:50:26.743Z,50.43
2018-02-23T15:52:54.790Z,50.82
2018-02-23T15:55:22.743Z,50.79
2018-02-23T15:58:04.540Z,51.53
2018-02-23T16:00:32.458Z,51.01
2018-02-23T16:03:00.389Z,50.84
2018-02-23T16:05:28.461Z,51.82
2018-02-23T16:07:56.420Z,52.11
2018-02-23T16:10:24.520Z,52.16
2018-02-23T16:12:52.513Z,52.31
2018-02-23T16:15:20.490Z,52.54
2018-02-23T16:17:48.520Z,52.76
2018-02-23T16:20:16.574Z,52.60
2018-02-23T16:22:44.605Z,52.36
2018-02-23T16:25:12.923Z,53.09
2018-02-23T16:27:40.884Z,53.42
2018-02-23T16:30:08.873Z,53.65
2018-02-23T16:32:36.837Z,53.14
2018-02-23T16:35:04.902Z,53.45
2018-02-23T16:37:33.485Z,53.29
2018-02-23T16:40:01.576Z,53.59
2018-02-23T16:42:29.579Z,63.36
2018-02-23T16:44:57.564Z,59.60
2018-02-23T16:47:25.571Z,56.59
2018-02-23T16:49:53.635Z,54.61
2018-02-23T16:52:21.611Z,54.12
2018-02-23T16:54:49.639Z,54.64
2018-02-23T16:57:18.032Z,54.91
2018-02-23T16:59:46.000Z,55.76
2018-02-23T17:02:14.328Z,56.30
2018-02-23T17:04:42.266Z,56.58
2018-02-23T17:07:10.210Z,56.97
2018-02-23T17:09:38.264Z,57.62
2018-02-23T17:12:06.211Z,57.10
2018-02-23T17:14:34.211Z,56.92
2018-02-23T17:17:02.282Z,57.70
2018-02-23T17:19:30.337Z,57.58
2018-02-23T17:21:58.288Z,57.72
2018-02-23T17:24:26.202Z,57.57
2018-02-23T17:26:54.153Z,57.66
2018-02-23T17:29:22.135Z,58.60
2018-02-23T17:31:50.152Z,59.16
2018-02-23T17:34:18.157Z,57.50
2018-02-23T17:36:46.204Z,57.57
2018-02-23T17:39:14.173Z,57.22
2018-02-23T17:41:42.146Z,57.36
2018-02-23T17:44:10.146Z,57.44
2018-02-23T17:46:38.168Z,57.48
2018-02-23T17:49:06.155Z,57.52
2018-02-23T17:51:34.123Z,57.78
2018-02-23T17:54:02.355Z,57.33
2018-02-23T17:56:30.318Z,57.26
2018-02-23T17:58:58.721Z,57.51
2018-02-23T18:01:26.719Z,57.67
2018-02-23T18:03:54.660Z,57.84
2018-02-23T18:06:22.595Z,58.22
2018-02-23T18:08:50.507Z,59.51
2018-02-23T18:11:18.433Z,60.03
2018-02-23T18:13:46.357Z,60.56
2018-02-23T18:16:14.775Z,60.11
2018-02-23T18:18:42.692Z,59.94
2018-02-23T18:21:10.655Z,59.81
2018-02-23T18:23:38.591Z,60.35
2018-02-23T18:26:06.550Z,58.93
2018-02-23T18:28:34.539Z,59.96
2018-02-23T18:31:02.501Z,60.25
2018-02-23T18:33:30.468Z,60.12
2018-02-23T18:35:58.711Z,60.64
2018-02-23T18:38:26.729Z,61.30
2018-02-23T18:40:55.079Z,61.50
2018-02-23T18:43:23.034Z,61.80
2018-02-23T18:45:50.976Z,61.73
2018-02-23T18:48:18.908Z,62.20
2018-02-23T18:50:46.846Z,62.10
2018-02-23T18:53:14.799Z,63.66
2018-02-23T18:55:42.746Z,64.18
2018-02-23T18:58:10.681Z,64.52
2018-02-23T19:00:38.637Z,64.85
2018-02-23T19:03:06.654Z,65.35
2018-02-23T19:05:34.641Z,64.76
2018-02-23T19:08:02.619Z,65.74
2018-02-23T19:10:30.615Z,66.26
2018-02-23T19:12:58.658Z,67.67
2018-02-23T19:15:26.665Z,66.85
2018-02-23T19:17:54.645Z,67.19
2018-02-23T19:20:22.614Z,68.53
2018-02-23T19:22:50.562Z,67.30
2018-02-23T19:25:18.598Z,67.72
2018-02-23T19:27:46.661Z,67.89
2018-02-23T19:30:14.652Z,67.81
2018-02-23T19:32:42.695Z,68.50
2018-02-23T19:35:10.664Z,67.47
2018-02-23T19:37:38.656Z,68.22
2018-02-23T19:40:07.686Z,68.29
2018-02-23T19:42:35.703Z,68.47
2018-02-23T19:45:03.670Z,68.47
2018-02-23T19:47:31.646Z,69.60
2018-02-23T19:49:59.612Z,68.13
2018-02-23T19:52:27.650Z,67.84
2018-02-23T19:54:55.633Z,68.04
2018-02-23T19:57:23.656Z,69.09
2018-02-23T19:59:52.548Z,69.11
2018-02-23T20:02:20.499Z,70.04
2018-02-23T20:04:48.485Z,69.90
2018-02-23T20:07:16.492Z,70.00
2018-02-23T20:09:44.440Z,71.38
2018-02-23T20:12:12.625Z,77.05
2018-02-23T20:14:40.607Z,73.56
2018-02-23T20:17:08.590Z,73.08
2018-02-23T20:19:36.583Z,71.59
2018-02-23T20:22:04.613Z,70.16
2018-02-23T20:24:32.764Z,67.62
2018-02-23T20:27:00.731Z,66.53
2018-02-23T20:29:28.717Z,66.72
2018-02-23T20:31:56.673Z,67.38
2018-02-23T20:34:24.616Z,68.01
2018-02-23T20:36:52.653Z,67.26
2018-02-23T20:39:20.781Z,68.93
2018-02-23T20:41:49.332Z,69.36
2018-02-23T20:44:17.310Z,67.84
2018-02-23T20:46:45.331Z,67.46
2018-02-23T20:49:13.368Z,66.45
2018-02-23T20:51:41.417Z,67.93
2018-02-23T20:54:09.440Z,67.76
2018-02-23T20:56:37.450Z,67.72
2018-02-23T20:59:05.403Z,66.98
2018-02-23T21:01:33.400Z,68.33
2018-02-23T21:04:01.438Z,67.69
2018-02-23T21:06:29.872Z,67.97
2018-02-23T21:08:57.873Z,67.70
2018-02-23T21:14:00.153Z,67.87
2018-02-23T21:16:28.207Z,67.97
2018-02-23T21:18:56.162Z,68.15
2018-02-23T21:21:24.094Z,68.48
2018-02-23T21:23:52.144Z,68.45
2018-02-23T21:26:20.181Z,68.71
2018-02-23T21:28:48.130Z,68.41
2018-02-23T21:31:16.118Z,69.63
2018-02-23T21:33:44.055Z,68.30
2018-02-23T21:36:12.012Z,68.58
2018-02-23T21:38:41.308Z,68.84
2018-02-23T21:41:09.222Z,68.43
2018-02-23T21:43:37.510Z,68.98
2018-02-23T21:46:05.490Z,69.07
2018-02-23T21:48:33.698Z,68.34
2018-02-23T21:51:02.063Z,69.00
2018-02-23T21:53:29.982Z,68.66
2018-02-23T21:55:57.970Z,68.90
2018-02-23T21:58:25.962Z,68.60
2018-02-23T22:00:53.874Z,68.16
2018-02-23T22:03:21.856Z,68.55
2018-02-23T22:05:49.799Z,68.46
2018-02-23T22:08:17.746Z,69.01
2018-02-23T22:10:45.715Z,69.28
2018-02-23T22:13:13.654Z,69.35
2018-02-23T22:15:41.601Z,68.92
2018-02-23T22:18:09.543Z,70.17
2018-02-23T22:20:37.509Z,68.69
2018-02-23T22:23:05.562Z,68.63
2018-02-23T22:25:33.542Z,68.57
2018-02-23T22:28:01.519Z,68.39
2018-02-23T22:30:29.446Z,68.52
2018-02-23T22:32:57.449Z,69.16
2018-02-23T22:35:25.419Z,68.36
2018-02-23T22:37:53.387Z,68.41
2018-02-23T22:40:21.350Z,68.55
2018-02-23T22:42:49.367Z,68.45
2018-02-23T22:45:17.326Z,68.39
2018-02-23T22:47:45.301Z,69.56
2018-02-23T22:50:13.244Z,70.67
2018-02-23T22:52:41.197Z,67.06
2018-02-23T22:55:09.183Z,67.20
2018-02-23T22:57:37.438Z,74.56
2018-02-23T23:00:05.522Z,70.55
2018-02-23T23:02:33.451Z,70.13
2018-02-23T23:05:01.372Z,67.85
2018-02-23T23:07:29.310Z,68.65
2018-02-23T23:09:57.264Z,68.97
2018-02-23T23:12:25.266Z,69.93
2018-02-23T23:14:53.392Z,70.62
2018-02-23T23:17:21.416Z,72.07
2018-02-23T23:19:49.389Z,70.35
2018-02-23T23:22:17.356Z,67.65
2018-02-23T23:24:45.282Z,77.70
2018-02-23T23:27:13.326Z,77.01
2018-02-23T23:29:41.319Z,69.41
2018-02-23T23:32:09.308Z,74.12
2018-02-23T23:34:37.272Z,69.93
2018-02-23T23:37:05.222Z,69.30
2018-02-23T23:39:33.304Z,69.73
2018-02-23T23:42:01.336Z,70.59
2018-02-23T23:44:29.238Z,73.04
2018-02-23T23:46:57.206Z,70.66
2018-02-23T23:49:25.183Z,73.35
2018-02-23T23:51:53.268Z,72.23
2018-02-23T23:54:21.367Z,71.74
2018-02-23T23:56:49.329Z,71.52
2018-02-23T23:59:17.330Z,69.60
